Share

Champion, NE (69023)

Imperial Municipal (KIML) Elev 3274 ft | 40.51 °N, 101.62 °W | Change Station

Current weather conditions updated 3 minutes ago

Clear
Clear
46 °F
Feels Like 39 °F
N
16
Wind Variable Wind from NNE
Sunrise 6:06 AM
Sunset 7:27 PM
Moon Waning Gibbous

Tomorrow is forecast to be Warmer than today.

Pressure 30.03 in
Visibility 10.0 miles
Clouds Clear
Windchill 39 °F
Dew Point 32 °F
Humidity 58%
Rainfall 0.00 in
Snow Depth Not available.
UV 0 out of 16
Pollen 10.90 out of 12
Air Quality Not available.
Flu Activity Sporadic
METAR KIML 170053Z AUTO 03014KT 10SM CLR 08/00 A3001 RMK AO2 PK WND 02026/0025 SLP168 T00780000 $

More Conditions Fewer Conditions

Pressure 30.03 in
Visibility 10.0 miles
Clouds Clear
Windchill 39 °F
Dew Point 32 °F
Humidity 58%
Rainfall 0.00 in
Snow Depth Not available.
UV 0 out of 16
Pollen 10.90 out of 12
Air Quality Not available.
Flu Activity Sporadic
METAR KIML 170053Z AUTO 03014KT 10SM CLR 08/00 A3001 RMK AO2 PK WND 02026/0025 SLP168 T00780000 $

More Conditions Fewer Conditions

10-Day Forecast

Almanac

Astronomy

Apr. 16, 2014 Rise Set
Actual Time 6:06 AM MDT 7:27 PM MDT
Civil Twilight 5:38 AM MDT 7:55 PM MDT
Nautical Twilight 5:04 AM MDT 8:29 PM MDT
Astronomical Twilight 4:29 AM MDT 9:05 PM MDT
Moon 9:13 PM MDT (4/16) 6:55 AM MDT (4/16)
Length of Visible Light 14h 16m
Length of Day
13h 20m
Tomorrow will be 2m 32s longer.
Waning Gibbous, 97% of the Moon is Illuminated
Today
Waning Gibbous
Apr 22
Last Quarter
Apr 29
New
May 6
First Quarter
May 14
Full

Today's Extremes

State Highs State Lows

Community

  • symphony in blue....
    symphony in blue....
  • Dawn Surprise
    Dawn Surprise
  • Yucca delight
    Yucca delight
  • Sunset inside of the Ocean
    Sunset inside of the Ocean
  • Lunar eclipse 15 April 2014
    Lunar eclipse 15 April 2014

WunderPhotos

Upload Photos

1,701,768 photos uploaded!

WunderBlogs® & News

Nearby

Snow Depth

Station Depth Elevation
No new snow has been reported.

Coastal Water Temperatures

Place Temperature
No Stations Reporting

Earthquake Activity

City Distance Mag. Time & Date
No recent earthquake activity has been reported nearby.
Minimum magnitude displayed is 2.5.

Nearby Weather Stations

There are no personal weather stations in this area.

What do you think?

We're not finished. Please let us know what you like, what you don't like, and what you are still missing.